sensor_id;sensor_type;location;lat;lon;timestamp;P1;durP1;ratioP1;P2;durP2;ratioP2
73940;SDS011;62294;48.554;10.202;2022-10-23T00:04:00;5.07;;;1.63;;
73940;SDS011;62294;48.554;10.202;2022-10-23T00:08:58;5.18;;;1.70;;
73940;SDS011;62294;48.554;10.202;2022-10-23T00:11:26;5.80;;;1.90;;
73940;SDS011;62294;48.554;10.202;2022-10-23T00:13:56;5.20;;;1.75;;
73940;SDS011;62294;48.554;10.202;2022-10-23T00:16:24;3.95;;;1.67;;
73940;SDS011;62294;48.554;10.202;2022-10-23T00:18:52;3.00;;;2.03;;
73940;SDS011;62294;48.554;10.202;2022-10-23T00:21:18;5.05;;;1.75;;
73940;SDS011;62294;48.554;10.202;2022-10-23T00:23:45;5.47;;;2.17;;
73940;SDS011;62294;48.554;10.202;2022-10-23T00:26:12;2.83;;;1.90;;
73940;SDS011;62294;48.554;10.202;2022-10-23T00:28:42;2.90;;;1.70;;
73940;SDS011;62294;48.554;10.202;2022-10-23T00:31:09;4.07;;;1.80;;
73940;SDS011;62294;48.554;10.202;2022-10-23T00:33:36;4.03;;;2.00;;
73940;SDS011;62294;48.554;10.202;2022-10-23T00:36:06;4.32;;;1.80;;
73940;SDS011;62294;48.554;10.202;2022-10-23T00:38:34;3.72;;;1.90;;
73940;SDS011;62294;48.554;10.202;2022-10-23T00:41:01;2.88;;;2.05;;
73940;SDS011;62294;48.554;10.202;2022-10-23T00:43:29;7.93;;;2.15;;
73940;SDS011;62294;48.554;10.202;2022-10-23T00:45:56;5.40;;;2.30;;
73940;SDS011;62294;48.554;10.202;2022-10-23T00:48:24;11.43;;;5.53;;
73940;SDS011;62294;48.554;10.202;2022-10-23T00:50:52;6.38;;;3.88;;
73940;SDS011;62294;48.554;10.202;2022-10-23T00:53:20;4.95;;;2.42;;
73940;SDS011;62294;48.554;10.202;2022-10-23T00:55:47;5.20;;;2.58;;
73940;SDS011;62294;48.554;10.202;2022-10-23T00:58:19;6.68;;;2.35;;
73940;SDS011;62294;48.554;10.202;2022-10-23T01:00:50;4.32;;;2.17;;
73940;SDS011;62294;48.554;10.202;2022-10-23T01:03:20;3.60;;;2.13;;
73940;SDS011;62294;48.554;10.202;2022-10-23T01:05:50;2.95;;;1.98;;
73940;SDS011;62294;48.554;10.202;2022-10-23T01:08:29;5.60;;;2.30;;
73940;SDS011;62294;48.554;10.202;2022-10-23T01:11:05;3.72;;;2.20;;
73940;SDS011;62294;48.554;10.202;2022-10-23T01:13:48;4.18;;;1.80;;
73940;SDS011;62294;48.554;10.202;2022-10-23T01:16:40;4.03;;;2.08;;
73940;SDS011;62294;48.554;10.202;2022-10-23T01:19:20;3.00;;;1.77;;
73940;SDS011;62294;48.554;10.202;2022-10-23T01:22:03;3.60;;;1.88;;
73940;SDS011;62294;48.554;10.202;2022-10-23T01:27:25;5.72;;;2.38;;
73940;SDS011;62294;48.554;10.202;2022-10-23T01:30:09;3.78;;;2.08;;
73940;SDS011;62294;48.554;10.202;2022-10-23T01:32:48;3.95;;;2.42;;
73940;SDS011;62294;48.554;10.202;2022-10-23T01:36:02;6.57;;;2.40;;
73940;SDS011;62294;48.554;10.202;2022-10-23T01:38:13;3.05;;;1.85;;
73940;SDS011;62294;48.554;10.202;2022-10-23T01:40:55;3.45;;;2.20;;
73940;SDS011;62294;48.554;10.202;2022-10-23T01:43:29;4.13;;;2.60;;
73940;SDS011;62294;48.554;10.202;2022-10-23T01:46:02;4.30;;;2.80;;
73940;SDS011;62294;48.554;10.202;2022-10-23T01:48:33;3.58;;;2.30;;
73940;SDS011;62294;48.554;10.202;2022-10-23T01:51:03;4.13;;;2.55;;
73940;SDS011;62294;48.554;10.202;2022-10-23T01:53:33;4.63;;;2.50;;
73940;SDS011;62294;48.554;10.202;2022-10-23T01:56:04;5.55;;;2.60;;
73940;SDS011;62294;48.554;10.202;2022-10-23T01:58:34;5.05;;;3.15;;
73940;SDS011;62294;48.554;10.202;2022-10-23T02:01:02;5.18;;;2.75;;
73940;SDS011;62294;48.554;10.202;2022-10-23T02:03:32;9.15;;;3.05;;
73940;SDS011;62294;48.554;10.202;2022-10-23T02:06:02;4.97;;;2.83;;
73940;SDS011;62294;48.554;10.202;2022-10-23T02:08:29;11.02;;;3.13;;
73940;SDS011;62294;48.554;10.202;2022-10-23T02:11:01;4.28;;;2.85;;
73940;SDS011;62294;48.554;10.202;2022-10-23T02:13:42;6.28;;;2.92;;
73940;SDS011;62294;48.554;10.202;2022-10-23T02:16:17;5.88;;;3.17;;
73940;SDS011;62294;48.554;10.202;2022-10-23T02:21:26;6.05;;;3.63;;
73940;SDS011;62294;48.554;10.202;2022-10-23T02:24:02;9.48;;;3.60;;
73940;SDS011;62294;48.554;10.202;2022-10-23T02:26:39;6.97;;;3.65;;
73940;SDS011;62294;48.554;10.202;2022-10-23T02:32:00;8.93;;;3.42;;
73940;SDS011;62294;48.554;10.202;2022-10-23T02:34:27;5.60;;;3.08;;
73940;SDS011;62294;48.554;10.202;2022-10-23T02:36:54;5.68;;;3.47;;
73940;SDS011;62294;48.554;10.202;2022-10-23T02:39:21;5.40;;;3.17;;
73940;SDS011;62294;48.554;10.202;2022-10-23T02:58:42;6.53;;;3.35;;
73940;SDS011;62294;48.554;10.202;2022-10-23T03:01:25;4.63;;;2.75;;
73940;SDS011;62294;48.554;10.202;2022-10-23T03:06:25;4.82;;;2.85;;
73940;SDS011;62294;48.554;10.202;2022-10-23T03:09:02;4.80;;;2.92;;
73940;SDS011;62294;48.554;10.202;2022-10-23T03:11:31;5.57;;;3.15;;
73940;SDS011;62294;48.554;10.202;2022-10-23T03:13:57;6.53;;;3.40;;
73940;SDS011;62294;48.554;10.202;2022-10-23T03:16:24;6.28;;;3.45;;
73940;SDS011;62294;48.554;10.202;2022-10-23T03:18:50;5.78;;;3.13;;
73940;SDS011;62294;48.554;10.202;2022-10-23T03:21:17;6.97;;;3.63;;
73940;SDS011;62294;48.554;10.202;2022-10-23T03:23:43;7.85;;;3.60;;
73940;SDS011;62294;48.554;10.202;2022-10-23T03:26:10;5.88;;;3.78;;
73940;SDS011;62294;48.554;10.202;2022-10-23T03:28:36;5.32;;;3.65;;
73940;SDS011;62294;48.554;10.202;2022-10-23T03:31:03;5.07;;;3.30;;
73940;SDS011;62294;48.554;10.202;2022-10-23T03:33:30;7.32;;;3.88;;
73940;SDS011;62294;48.554;10.202;2022-10-23T03:35:57;7.15;;;3.47;;
73940;SDS011;62294;48.554;10.202;2022-10-23T03:38:24;5.78;;;3.17;;
73940;SDS011;62294;48.554;10.202;2022-10-23T03:40:50;6.55;;;4.13;;
73940;SDS011;62294;48.554;10.202;2022-10-23T03:43:16;7.13;;;3.80;;
73940;SDS011;62294;48.554;10.202;2022-10-23T03:45:43;7.13;;;3.88;;
73940;SDS011;62294;48.554;10.202;2022-10-23T03:48:09;7.05;;;4.05;;
73940;SDS011;62294;48.554;10.202;2022-10-23T03:50:36;7.82;;;4.10;;
73940;SDS011;62294;48.554;10.202;2022-10-23T03:53:03;6.50;;;3.83;;
73940;SDS011;62294;48.554;10.202;2022-10-23T03:55:29;8.07;;;3.90;;
73940;SDS011;62294;48.554;10.202;2022-10-23T03:57:56;6.70;;;3.72;;
73940;SDS011;62294;48.554;10.202;2022-10-23T04:00:23;5.88;;;3.80;;
73940;SDS011;62294;48.554;10.202;2022-10-23T04:02:49;7.90;;;4.28;;
73940;SDS011;62294;48.554;10.202;2022-10-23T04:05:15;6.05;;;4.03;;
73940;SDS011;62294;48.554;10.202;2022-10-23T04:07:42;7.43;;;3.88;;
73940;SDS011;62294;48.554;10.202;2022-10-23T04:10:09;6.15;;;3.90;;
73940;SDS011;62294;48.554;10.202;2022-10-23T04:12:35;8.13;;;3.63;;
73940;SDS011;62294;48.554;10.202;2022-10-23T04:15:02;6.65;;;3.70;;
73940;SDS011;62294;48.554;10.202;2022-10-23T04:17:29;8.82;;;4.20;;
73940;SDS011;62294;48.554;10.202;2022-10-23T04:19:55;8.38;;;4.28;;
73940;SDS011;62294;48.554;10.202;2022-10-23T04:22:22;6.82;;;4.18;;
73940;SDS011;62294;48.554;10.202;2022-10-23T04:24:53;7.22;;;4.22;;
73940;SDS011;62294;48.554;10.202;2022-10-23T04:27:19;7.25;;;3.72;;
73940;SDS011;62294;48.554;10.202;2022-10-23T04:29:46;6.85;;;3.85;;
73940;SDS011;62294;48.554;10.202;2022-10-23T04:32:12;6.75;;;4.10;;
73940;SDS011;62294;48.554;10.202;2022-10-23T04:34:39;7.30;;;3.67;;
73940;SDS011;62294;48.554;10.202;2022-10-23T04:37:05;6.55;;;4.00;;
73940;SDS011;62294;48.554;10.202;2022-10-23T04:39:32;9.43;;;5.70;;
73940;SDS011;62294;48.554;10.202;2022-10-23T04:41:58;8.85;;;4.05;;
73940;SDS011;62294;48.554;10.202;2022-10-23T04:44:25;6.88;;;3.88;;
73940;SDS011;62294;48.554;10.202;2022-10-23T04:46:52;8.57;;;4.18;;
73940;SDS011;62294;48.554;10.202;2022-10-23T04:49:18;6.07;;;3.55;;
73940;SDS011;62294;48.554;10.202;2022-10-23T04:51:44;7.78;;;4.03;;
73940;SDS011;62294;48.554;10.202;2022-10-23T04:54:11;6.72;;;3.53;;
73940;SDS011;62294;48.554;10.202;2022-10-23T04:56:37;8.90;;;3.92;;
73940;SDS011;62294;48.554;10.202;2022-10-23T04:59:05;11.15;;;3.70;;
73940;SDS011;62294;48.554;10.202;2022-10-23T05:01:36;8.18;;;4.05;;
73940;SDS011;62294;48.554;10.202;2022-10-23T05:04:03;6.75;;;3.95;;
73940;SDS011;62294;48.554;10.202;2022-10-23T05:06:29;8.82;;;4.60;;
73940;SDS011;62294;48.554;10.202;2022-10-23T05:08:56;8.73;;;4.15;;
73940;SDS011;62294;48.554;10.202;2022-10-23T05:11:23;6.53;;;4.18;;
73940;SDS011;62294;48.554;10.202;2022-10-23T05:13:49;9.45;;;4.25;;
73940;SDS011;62294;48.554;10.202;2022-10-23T05:16:38;11.05;;;4.70;;
73940;SDS011;62294;48.554;10.202;2022-10-23T05:19:07;9.45;;;4.55;;
73940;SDS011;62294;48.554;10.202;2022-10-23T05:21:36;9.85;;;4.20;;
73940;SDS011;62294;48.554;10.202;2022-10-23T05:24:04;7.53;;;3.83;;
73940;SDS011;62294;48.554;10.202;2022-10-23T05:26:30;6.47;;;3.97;;
73940;SDS011;62294;48.554;10.202;2022-10-23T05:28:58;6.07;;;3.65;;
73940;SDS011;62294;48.554;10.202;2022-10-23T05:31:24;6.75;;;3.63;;
73940;SDS011;62294;48.554;10.202;2022-10-23T05:33:51;6.18;;;3.67;;
73940;SDS011;62294;48.554;10.202;2022-10-23T05:36:20;6.65;;;4.13;;
73940;SDS011;62294;48.554;10.202;2022-10-23T05:38:48;8.25;;;4.55;;
73940;SDS011;62294;48.554;10.202;2022-10-23T05:41:15;5.72;;;3.55;;
73940;SDS011;62294;48.554;10.202;2022-10-23T05:43:43;7.15;;;4.40;;
73940;SDS011;62294;48.554;10.202;2022-10-23T05:46:11;6.95;;;3.90;;
73940;SDS011;62294;48.554;10.202;2022-10-23T05:48:37;7.40;;;3.90;;
73940;SDS011;62294;48.554;10.202;2022-10-23T05:51:08;8.65;;;4.45;;
73940;SDS011;62294;48.554;10.202;2022-10-23T05:53:35;8.23;;;4.55;;
73940;SDS011;62294;48.554;10.202;2022-10-23T05:56:07;6.35;;;4.32;;
73940;SDS011;62294;48.554;10.202;2022-10-23T05:58:34;6.53;;;4.28;;
73940;SDS011;62294;48.554;10.202;2022-10-23T06:01:05;9.95;;;5.13;;
73940;SDS011;62294;48.554;10.202;2022-10-23T06:03:33;10.55;;;4.95;;
73940;SDS011;62294;48.554;10.202;2022-10-23T06:06:02;10.75;;;4.68;;
73940;SDS011;62294;48.554;10.202;2022-10-23T06:08:29;11.50;;;4.88;;
73940;SDS011;62294;48.554;10.202;2022-10-23T06:10:56;8.75;;;4.43;;
73940;SDS011;62294;48.554;10.202;2022-10-23T06:13:23;10.73;;;4.85;;
73940;SDS011;62294;48.554;10.202;2022-10-23T06:15:50;10.68;;;4.90;;
73940;SDS011;62294;48.554;10.202;2022-10-23T06:18:16;11.77;;;5.93;;
73940;SDS011;62294;48.554;10.202;2022-10-23T06:20:43;13.32;;;5.78;;
73940;SDS011;62294;48.554;10.202;2022-10-23T06:23:09;11.07;;;5.75;;
73940;SDS011;62294;48.554;10.202;2022-10-23T06:25:36;16.75;;;7.40;;
73940;SDS011;62294;48.554;10.202;2022-10-23T06:28:02;19.40;;;8.73;;
73940;SDS011;62294;48.554;10.202;2022-10-23T06:30:29;19.27;;;6.82;;
73940;SDS011;62294;48.554;10.202;2022-10-23T06:32:55;17.58;;;6.88;;
73940;SDS011;62294;48.554;10.202;2022-10-23T06:35:22;16.45;;;6.55;;
73940;SDS011;62294;48.554;10.202;2022-10-23T06:37:48;18.30;;;7.10;;
73940;SDS011;62294;48.554;10.202;2022-10-23T06:40:14;14.65;;;7.10;;
73940;SDS011;62294;48.554;10.202;2022-10-23T06:42:42;20.00;;;7.53;;
73940;SDS011;62294;48.554;10.202;2022-10-23T06:45:09;17.80;;;7.32;;
73940;SDS011;62294;48.554;10.202;2022-10-23T06:47:35;15.98;;;7.32;;
73940;SDS011;62294;48.554;10.202;2022-10-23T06:50:02;22.50;;;8.27;;
73940;SDS011;62294;48.554;10.202;2022-10-23T06:52:28;16.65;;;8.00;;
73940;SDS011;62294;48.554;10.202;2022-10-23T06:55:12;18.30;;;8.10;;
73940;SDS011;62294;48.554;10.202;2022-10-23T06:57:38;21.77;;;8.60;;
73940;SDS011;62294;48.554;10.202;2022-10-23T07:00:06;19.25;;;8.27;;
73940;SDS011;62294;48.554;10.202;2022-10-23T07:02:33;19.35;;;8.27;;
73940;SDS011;62294;48.554;10.202;2022-10-23T07:04:59;21.42;;;8.68;;
73940;SDS011;62294;48.554;10.202;2022-10-23T07:07:28;19.25;;;8.43;;
73940;SDS011;62294;48.554;10.202;2022-10-23T07:09:55;17.15;;;7.85;;
73940;SDS011;62294;48.554;10.202;2022-10-23T07:12:21;21.42;;;6.68;;
73940;SDS011;62294;48.554;10.202;2022-10-23T07:14:48;15.77;;;7.00;;
73940;SDS011;62294;48.554;10.202;2022-10-23T07:17:14;17.23;;;7.70;;
73940;SDS011;62294;48.554;10.202;2022-10-23T07:19:40;24.00;;;8.32;;
73940;SDS011;62294;48.554;10.202;2022-10-23T07:22:07;20.30;;;8.25;;
73940;SDS011;62294;48.554;10.202;2022-10-23T07:24:38;26.20;;;9.13;;
73940;SDS011;62294;48.554;10.202;2022-10-23T07:27:05;19.90;;;8.95;;
73940;SDS011;62294;48.554;10.202;2022-10-23T07:29:32;19.85;;;8.25;;
73940;SDS011;62294;48.554;10.202;2022-10-23T07:31:59;22.75;;;8.68;;
73940;SDS011;62294;48.554;10.202;2022-10-23T07:34:26;22.77;;;9.48;;
73940;SDS011;62294;48.554;10.202;2022-10-23T07:36:53;21.90;;;9.23;;
73940;SDS011;62294;48.554;10.202;2022-10-23T07:39:22;20.80;;;8.75;;
73940;SDS011;62294;48.554;10.202;2022-10-23T07:41:48;19.70;;;7.65;;
73940;SDS011;62294;48.554;10.202;2022-10-23T07:44:15;19.73;;;8.48;;
73940;SDS011;62294;48.554;10.202;2022-10-23T07:46:41;21.77;;;7.70;;
73940;SDS011;62294;48.554;10.202;2022-10-23T07:49:09;32.83;;;8.90;;
73940;SDS011;62294;48.554;10.202;2022-10-23T07:51:36;20.25;;;8.18;;
73940;SDS011;62294;48.554;10.202;2022-10-23T07:54:02;21.05;;;8.52;;
73940;SDS011;62294;48.554;10.202;2022-10-23T07:56:29;21.98;;;9.20;;
73940;SDS011;62294;48.554;10.202;2022-10-23T07:58:56;17.90;;;8.20;;
73940;SDS011;62294;48.554;10.202;2022-10-23T08:01:28;14.05;;;6.47;;
73940;SDS011;62294;48.554;10.202;2022-10-23T08:03:57;18.33;;;8.32;;
73940;SDS011;62294;48.554;10.202;2022-10-23T08:06:24;14.82;;;7.53;;
73940;SDS011;62294;48.554;10.202;2022-10-23T08:08:50;18.10;;;8.95;;
73940;SDS011;62294;48.554;10.202;2022-10-23T08:11:19;15.07;;;7.70;;
73940;SDS011;62294;48.554;10.202;2022-10-23T08:13:51;14.43;;;7.35;;
73940;SDS011;62294;48.554;10.202;2022-10-23T08:16:18;15.57;;;7.53;;
73940;SDS011;62294;48.554;10.202;2022-10-23T08:18:45;12.38;;;7.25;;
73940;SDS011;62294;48.554;10.202;2022-10-23T08:21:13;12.52;;;6.82;;
73940;SDS011;62294;48.554;10.202;2022-10-23T08:23:40;12.10;;;6.38;;
73940;SDS011;62294;48.554;10.202;2022-10-23T08:26:07;15.40;;;6.35;;
73940;SDS011;62294;48.554;10.202;2022-10-23T08:28:35;10.68;;;5.97;;
73940;SDS011;62294;48.554;10.202;2022-10-23T08:31:08;12.20;;;6.25;;
73940;SDS011;62294;48.554;10.202;2022-10-23T08:33:37;12.15;;;6.82;;
73940;SDS011;62294;48.554;10.202;2022-10-23T08:36:05;9.65;;;6.22;;
73940;SDS011;62294;48.554;10.202;2022-10-23T08:38:40;9.18;;;6.28;;
73940;SDS011;62294;48.554;10.202;2022-10-23T08:41:12;13.68;;;7.03;;
73940;SDS011;62294;48.554;10.202;2022-10-23T08:43:50;15.52;;;8.57;;
73940;SDS011;62294;48.554;10.202;2022-10-23T08:46:22;14.02;;;7.30;;
73940;SDS011;62294;48.554;10.202;2022-10-23T08:49:08;8.80;;;5.35;;
73940;SDS011;62294;48.554;10.202;2022-10-23T08:51:46;13.27;;;6.80;;
73940;SDS011;62294;48.554;10.202;2022-10-23T08:54:17;9.98;;;5.65;;
73940;SDS011;62294;48.554;10.202;2022-10-23T08:56:51;7.55;;;4.70;;
73940;SDS011;62294;48.554;10.202;2022-10-23T08:59:31;5.80;;;4.22;;
73940;SDS011;62294;48.554;10.202;2022-10-23T09:04:43;4.20;;;3.20;;
73940;SDS011;62294;48.554;10.202;2022-10-23T09:07:14;4.32;;;2.97;;
73940;SDS011;62294;48.554;10.202;2022-10-23T09:12:22;5.65;;;3.10;;
73940;SDS011;62294;48.554;10.202;2022-10-23T09:20:09;5.70;;;4.00;;
73940;SDS011;62294;48.554;10.202;2022-10-23T09:22:41;4.38;;;3.22;;
73940;SDS011;62294;48.554;10.202;2022-10-23T09:25:09;4.05;;;3.10;;
73940;SDS011;62294;48.554;10.202;2022-10-23T09:27:37;5.22;;;3.35;;
73940;SDS011;62294;48.554;10.202;2022-10-23T09:30:04;5.13;;;3.55;;
73940;SDS011;62294;48.554;10.202;2022-10-23T09:32:32;6.40;;;3.60;;
73940;SDS011;62294;48.554;10.202;2022-10-23T09:35:02;4.05;;;3.03;;
73940;SDS011;62294;48.554;10.202;2022-10-23T09:37:31;4.47;;;3.15;;
73940;SDS011;62294;48.554;10.202;2022-10-23T09:42:52;3.63;;;2.90;;
73940;SDS011;62294;48.554;10.202;2022-10-23T09:45:22;4.68;;;3.17;;
73940;SDS011;62294;48.554;10.202;2022-10-23T09:47:50;3.60;;;3.10;;
73940;SDS011;62294;48.554;10.202;2022-10-23T09:50:19;4.28;;;3.50;;
73940;SDS011;62294;48.554;10.202;2022-10-23T09:52:47;4.05;;;3.47;;
73940;SDS011;62294;48.554;10.202;2022-10-23T09:55:20;4.10;;;2.90;;
73940;SDS011;62294;48.554;10.202;2022-10-23T09:57:50;5.90;;;3.25;;
73940;SDS011;62294;48.554;10.202;2022-10-23T10:00:20;4.30;;;3.05;;
73940;SDS011;62294;48.554;10.202;2022-10-23T10:08:18;5.70;;;3.30;;
73940;SDS011;62294;48.554;10.202;2022-10-23T10:10:50;4.25;;;3.33;;
73940;SDS011;62294;48.554;10.202;2022-10-23T10:13:28;5.57;;;2.72;;
73940;SDS011;62294;48.554;10.202;2022-10-23T10:16:08;3.60;;;2.95;;
73940;SDS011;62294;48.554;10.202;2022-10-23T10:24:01;4.78;;;3.30;;
73940;SDS011;62294;48.554;10.202;2022-10-23T10:26:39;6.53;;;4.50;;
73940;SDS011;62294;48.554;10.202;2022-10-23T10:34:40;4.35;;;3.20;;
73940;SDS011;62294;48.554;10.202;2022-10-23T10:42:49;4.13;;;3.35;;
73940;SDS011;62294;48.554;10.202;2022-10-23T10:45:45;5.75;;;3.08;;
73940;SDS011;62294;48.554;10.202;2022-10-23T10:51:07;4.22;;;2.92;;
73940;SDS011;62294;48.554;10.202;2022-10-23T10:56:14;4.40;;;3.00;;
73940;SDS011;62294;48.554;10.202;2022-10-23T10:58:49;5.90;;;3.20;;
73940;SDS011;62294;48.554;10.202;2022-10-23T11:04:04;6.30;;;3.60;;
73940;SDS011;62294;48.554;10.202;2022-10-23T11:06:38;4.20;;;3.10;;
73940;SDS011;62294;48.554;10.202;2022-10-23T11:09:13;5.50;;;3.20;;
73940;SDS011;62294;48.554;10.202;2022-10-23T11:11:49;4.57;;;2.80;;
73940;SDS011;62294;48.554;10.202;2022-10-23T11:14:23;6.43;;;5.15;;
73940;SDS011;62294;48.554;10.202;2022-10-23T11:28:15;4.60;;;3.25;;
73940;SDS011;62294;48.554;10.202;2022-10-23T11:31:04;6.35;;;3.50;;
73940;SDS011;62294;48.554;10.202;2022-10-23T11:36:40;5.95;;;3.40;;
73940;SDS011;62294;48.554;10.202;2022-10-23T11:39:27;7.38;;;3.90;;
73940;SDS011;62294;48.554;10.202;2022-10-23T11:41:56;4.63;;;3.53;;
73940;SDS011;62294;48.554;10.202;2022-10-23T11:47:42;4.65;;;3.55;;
73940;SDS011;62294;48.554;10.202;2022-10-23T11:49:49;5.40;;;3.85;;
73940;SDS011;62294;48.554;10.202;2022-10-23T11:52:20;6.90;;;3.20;;
73940;SDS011;62294;48.554;10.202;2022-10-23T11:54:59;5.57;;;4.32;;
73940;SDS011;62294;48.554;10.202;2022-10-23T11:57:27;5.90;;;3.42;;
73940;SDS011;62294;48.554;10.202;2022-10-23T11:59:55;5.38;;;3.85;;
73940;SDS011;62294;48.554;10.202;2022-10-23T12:04:59;4.75;;;3.33;;
73940;SDS011;62294;48.554;10.202;2022-10-23T12:07:30;3.47;;;2.97;;
73940;SDS011;62294;48.554;10.202;2022-10-23T12:10:02;6.50;;;3.45;;
73940;SDS011;62294;48.554;10.202;2022-10-23T12:17:42;5.82;;;3.75;;
73940;SDS011;62294;48.554;10.202;2022-10-23T12:20:15;3.22;;;2.92;;
73940;SDS011;62294;48.554;10.202;2022-10-23T12:25:47;2.83;;;2.53;;
73940;SDS011;62294;48.554;10.202;2022-10-23T12:28:28;3.35;;;2.40;;
73940;SDS011;62294;48.554;10.202;2022-10-23T12:39:00;5.97;;;2.85;;
73940;SDS011;62294;48.554;10.202;2022-10-23T12:41:27;4.90;;;2.55;;
73940;SDS011;62294;48.554;10.202;2022-10-23T12:46:35;6.95;;;3.30;;
73940;SDS011;62294;48.554;10.202;2022-10-23T12:49:13;6.63;;;2.90;;
73940;SDS011;62294;48.554;10.202;2022-10-23T12:51:44;4.38;;;2.35;;
73940;SDS011;62294;48.554;10.202;2022-10-23T12:54:13;2.65;;;2.20;;
73940;SDS011;62294;48.554;10.202;2022-10-23T12:56:41;2.30;;;1.90;;
73940;SDS011;62294;48.554;10.202;2022-10-23T12:59:12;6.93;;;2.30;;
73940;SDS011;62294;48.554;10.202;2022-10-23T13:01:41;2.83;;;2.08;;
73940;SDS011;62294;48.554;10.202;2022-10-23T13:06:35;2.80;;;2.25;;
73940;SDS011;62294;48.554;10.202;2022-10-23T13:09:04;3.13;;;2.40;;
73940;SDS011;62294;48.554;10.202;2022-10-23T13:11:32;5.15;;;2.45;;
73940;SDS011;62294;48.554;10.202;2022-10-23T13:13:59;3.95;;;3.10;;
73940;SDS011;62294;48.554;10.202;2022-10-23T13:16:25;3.70;;;2.67;;
73940;SDS011;62294;48.554;10.202;2022-10-23T13:18:52;2.63;;;2.28;;
73940;SDS011;62294;48.554;10.202;2022-10-23T13:21:22;3.20;;;2.20;;
73940;SDS011;62294;48.554;10.202;2022-10-23T13:23:52;3.92;;;2.55;;
73940;SDS011;62294;48.554;10.202;2022-10-23T13:26:23;3.80;;;2.92;;
73940;SDS011;62294;48.554;10.202;2022-10-23T13:29:29;5.00;;;2.50;;
73940;SDS011;62294;48.554;10.202;2022-10-23T13:32:12;2.97;;;2.05;;
73940;SDS011;62294;48.554;10.202;2022-10-23T13:34:50;3.95;;;2.30;;
73940;SDS011;62294;48.554;10.202;2022-10-23T13:37:35;2.85;;;2.30;;
73940;SDS011;62294;48.554;10.202;2022-10-23T13:40:03;6.30;;;2.35;;
73940;SDS011;62294;48.554;10.202;2022-10-23T13:42:32;3.78;;;2.28;;
73940;SDS011;62294;48.554;10.202;2022-10-23T13:44:58;2.83;;;2.08;;
73940;SDS011;62294;48.554;10.202;2022-10-23T13:47:26;3.97;;;2.58;;
73940;SDS011;62294;48.554;10.202;2022-10-23T13:49:53;3.55;;;2.40;;
73940;SDS011;62294;48.554;10.202;2022-10-23T13:52:19;2.85;;;2.13;;
73940;SDS011;62294;48.554;10.202;2022-10-23T13:54:48;3.45;;;2.50;;
73940;SDS011;62294;48.554;10.202;2022-10-23T13:57:16;3.65;;;2.67;;
73940;SDS011;62294;48.554;10.202;2022-10-23T13:59:42;6.07;;;2.72;;
73940;SDS011;62294;48.554;10.202;2022-10-23T14:02:16;3.35;;;2.67;;
73940;SDS011;62294;48.554;10.202;2022-10-23T14:04:46;3.38;;;2.75;;
73940;SDS011;62294;48.554;10.202;2022-10-23T14:07:13;4.38;;;2.47;;
73940;SDS011;62294;48.554;10.202;2022-10-23T14:09:41;2.80;;;2.28;;
73940;SDS011;62294;48.554;10.202;2022-10-23T14:12:08;4.28;;;2.90;;
73940;SDS011;62294;48.554;10.202;2022-10-23T14:14:34;10.15;;;5.80;;
73940;SDS011;62294;48.554;10.202;2022-10-23T14:17:00;5.43;;;3.75;;
73940;SDS011;62294;48.554;10.202;2022-10-23T14:19:27;4.47;;;3.22;;
73940;SDS011;62294;48.554;10.202;2022-10-23T14:21:54;5.38;;;3.08;;
73940;SDS011;62294;48.554;10.202;2022-10-23T14:24:20;6.05;;;3.08;;
73940;SDS011;62294;48.554;10.202;2022-10-23T14:26:47;5.03;;;2.80;;
73940;SDS011;62294;48.554;10.202;2022-10-23T14:29:13;5.38;;;3.47;;
73940;SDS011;62294;48.554;10.202;2022-10-23T14:31:49;4.38;;;2.63;;
73940;SDS011;62294;48.554;10.202;2022-10-23T14:34:15;7.07;;;3.15;;
73940;SDS011;62294;48.554;10.202;2022-10-23T14:36:42;5.55;;;3.85;;
73940;SDS011;62294;48.554;10.202;2022-10-23T14:39:21;3.22;;;2.60;;
73940;SDS011;62294;48.554;10.202;2022-10-23T14:41:48;2.75;;;2.45;;
73940;SDS011;62294;48.554;10.202;2022-10-23T14:44:15;7.80;;;3.42;;
73940;SDS011;62294;48.554;10.202;2022-10-23T14:46:41;6.47;;;2.90;;
73940;SDS011;62294;48.554;10.202;2022-10-23T14:49:08;6.63;;;3.22;;
73940;SDS011;62294;48.554;10.202;2022-10-23T14:51:34;3.28;;;2.35;;
73940;SDS011;62294;48.554;10.202;2022-10-23T14:54:02;5.60;;;2.80;;
73940;SDS011;62294;48.554;10.202;2022-10-23T14:56:31;9.32;;;3.42;;
73940;SDS011;62294;48.554;10.202;2022-10-23T14:58:59;6.78;;;3.13;;
73940;SDS011;62294;48.554;10.202;2022-10-23T15:01:29;3.25;;;2.25;;
73940;SDS011;62294;48.554;10.202;2022-10-23T15:03:57;5.57;;;2.60;;
73940;SDS011;62294;48.554;10.202;2022-10-23T15:06:24;4.25;;;2.92;;
73940;SDS011;62294;48.554;10.202;2022-10-23T15:08:51;11.48;;;3.30;;
73940;SDS011;62294;48.554;10.202;2022-10-23T15:11:20;3.47;;;2.50;;
73940;SDS011;62294;48.554;10.202;2022-10-23T15:13:47;7.13;;;2.88;;
73940;SDS011;62294;48.554;10.202;2022-10-23T15:16:14;4.43;;;2.60;;
73940;SDS011;62294;48.554;10.202;2022-10-23T15:18:41;8.57;;;2.88;;
73940;SDS011;62294;48.554;10.202;2022-10-23T15:21:07;5.50;;;2.40;;
73940;SDS011;62294;48.554;10.202;2022-10-23T15:23:38;3.38;;;2.47;;
73940;SDS011;62294;48.554;10.202;2022-10-23T15:26:07;3.65;;;2.53;;
73940;SDS011;62294;48.554;10.202;2022-10-23T15:28:37;3.42;;;2.40;;
73940;SDS011;62294;48.554;10.202;2022-10-23T15:31:04;5.03;;;2.55;;
73940;SDS011;62294;48.554;10.202;2022-10-23T15:33:31;4.97;;;1.98;;
73940;SDS011;62294;48.554;10.202;2022-10-23T15:35:57;7.82;;;2.20;;
73940;SDS011;62294;48.554;10.202;2022-10-23T15:38:24;7.85;;;2.45;;
73940;SDS011;62294;48.554;10.202;2022-10-23T15:40:53;5.72;;;2.25;;
73940;SDS011;62294;48.554;10.202;2022-10-23T15:43:25;5.60;;;2.28;;
73940;SDS011;62294;48.554;10.202;2022-10-23T15:45:52;2.92;;;2.17;;
73940;SDS011;62294;48.554;10.202;2022-10-23T15:48:18;3.33;;;1.98;;
73940;SDS011;62294;48.554;10.202;2022-10-23T15:50:45;4.05;;;2.00;;
73940;SDS011;62294;48.554;10.202;2022-10-23T15:53:11;3.60;;;2.20;;
73940;SDS011;62294;48.554;10.202;2022-10-23T15:55:38;3.33;;;2.80;;
73940;SDS011;62294;48.554;10.202;2022-10-23T15:58:04;11.85;;;2.55;;
73940;SDS011;62294;48.554;10.202;2022-10-23T16:00:31;6.47;;;2.20;;
73940;SDS011;62294;48.554;10.202;2022-10-23T16:03:01;5.68;;;2.65;;
73940;SDS011;62294;48.554;10.202;2022-10-23T16:05:27;6.72;;;2.30;;
73940;SDS011;62294;48.554;10.202;2022-10-23T16:07:54;5.38;;;2.50;;
73940;SDS011;62294;48.554;10.202;2022-10-23T16:10:20;4.80;;;2.38;;
73940;SDS011;62294;48.554;10.202;2022-10-23T16:12:48;7.45;;;2.65;;
73940;SDS011;62294;48.554;10.202;2022-10-23T16:15:15;4.43;;;2.50;;
73940;SDS011;62294;48.554;10.202;2022-10-23T16:17:41;3.90;;;2.25;;
73940;SDS011;62294;48.554;10.202;2022-10-23T16:20:08;9.25;;;5.88;;
73940;SDS011;62294;48.554;10.202;2022-10-23T16:22:35;5.07;;;2.90;;
73940;SDS011;62294;48.554;10.202;2022-10-23T16:25:07;6.60;;;2.90;;
73940;SDS011;62294;48.554;10.202;2022-10-23T16:27:34;9.43;;;3.40;;
73940;SDS011;62294;48.554;10.202;2022-10-23T16:30:01;6.13;;;2.83;;
73940;SDS011;62294;48.554;10.202;2022-10-23T16:32:27;4.82;;;2.78;;
73940;SDS011;62294;48.554;10.202;2022-10-23T16:34:54;4.05;;;2.63;;
73940;SDS011;62294;48.554;10.202;2022-10-23T16:37:21;4.50;;;2.72;;
73940;SDS011;62294;48.554;10.202;2022-10-23T16:39:47;4.35;;;3.33;;
73940;SDS011;62294;48.554;10.202;2022-10-23T16:42:13;3.97;;;3.00;;